sensor_id;sensor_type;location;lat;lon;timestamp;temperature;humidity
56123;DHT22;42426;46.104;19.656;2024-03-22T06:43:30;282.00;2227.20
56123;DHT22;42426;46.104;19.656;2024-03-22T06:45:56;281.90;2201.60
56123;DHT22;42426;46.104;19.656;2024-03-22T06:48:22;282.00;2176.00
56123;DHT22;42426;46.104;19.656;2024-03-22T06:50:48;282.00;2150.40
56123;DHT22;42426;46.104;19.656;2024-03-22T06:53:13;282.10;2150.40
56123;DHT22;42426;46.104;19.656;2024-03-22T06:55:39;282.20;2176.00
56123;DHT22;42426;46.104;19.656;2024-03-22T06:58:05;282.30;2150.40
56123;DHT22;42426;46.104;19.656;2024-03-22T07:49:25;333.30;2329.60
56123;DHT22;42426;46.104;19.656;2024-03-22T07:51:51;333.10;2329.60
56123;DHT22;42426;46.104;19.656;2024-03-22T07:54:18;333.10;2329.60
56123;DHT22;42426;46.104;19.656;2024-03-22T07:56:44;333.20;2329.60
56123;DHT22;42426;46.104;19.656;2024-03-22T07:59:10;333.30;2329.60
56123;DHT22;42426;46.104;19.656;2024-03-22T08:01:36;333.30;2329.60
56123;DHT22;42426;46.104;19.656;2024-03-22T08:04:01;333.40;2329.60
56123;DHT22;42426;46.104;19.656;2024-03-22T08:06:27;333.50;2329.60
56123;DHT22;42426;46.104;19.656;2024-03-22T08:08:53;333.60;2329.60
56123;DHT22;42426;46.104;19.656;2024-03-22T08:11:19;333.60;2329.60
56123;DHT22;42426;46.104;19.656;2024-03-22T08:13:45;333.60;2329.60
56123;DHT22;42426;46.104;19.656;2024-03-22T08:16:12;333.70;2329.60
56123;DHT22;42426;46.104;19.656;2024-03-22T08:18:38;333.70;2329.60
56123;DHT22;42426;46.104;19.656;2024-03-22T08:21:04;358.40;2329.60
56123;DHT22;42426;46.104;19.656;2024-03-22T08:23:30;358.40;2329.60
56123;DHT22;42426;46.104;19.656;2024-03-22T08:25:57;358.40;2329.60
56123;DHT22;42426;46.104;19.656;2024-03-22T08:28:23;358.40;2329.60
56123;DHT22;42426;46.104;19.656;2024-03-22T08:30:50;358.40;2329.60
56123;DHT22;42426;46.104;19.656;2024-03-22T08:33:15;358.50;2329.60
56123;DHT22;42426;46.104;19.656;2024-03-22T08:35:41;358.50;2329.60
56123;DHT22;42426;46.104;19.656;2024-03-22T08:38:07;358.50;2329.60
56123;DHT22;42426;46.104;19.656;2024-03-22T08:40:38;358.60;2329.60
56123;DHT22;42426;46.104;19.656;2024-03-22T08:43:06;358.90;2329.60
56123;DHT22;42426;46.104;19.656;2024-03-22T09:39:18;384.80;2227.20
56123;DHT22;42426;46.104;19.656;2024-03-22T09:41:45;384.60;2227.20
56123;DHT22;42426;46.104;19.656;2024-03-22T09:44:13;384.50;2227.20
56123;DHT22;42426;46.104;19.656;2024-03-22T09:46:40;384.50;2227.20
56123;DHT22;42426;46.104;19.656;2024-03-22T09:49:10;384.60;2227.20
56123;DHT22;42426;46.104;19.656;2024-03-22T09:51:42;384.60;2201.60
56123;DHT22;42426;46.104;19.656;2024-03-22T09:54:11;384.70;2201.60
56123;DHT22;42426;46.104;19.656;2024-03-22T09:56:39;384.70;2201.60
56123;DHT22;42426;46.104;19.656;2024-03-22T09:59:05;384.70;2201.60
56123;DHT22;42426;46.104;19.656;2024-03-22T10:01:34;384.70;2201.60
56123;DHT22;42426;46.104;19.656;2024-03-22T10:04:00;384.80;2201.60
56123;DHT22;42426;46.104;19.656;2024-03-22T10:06:26;384.90;2201.60
56123;DHT22;42426;46.104;19.656;2024-03-22T10:08:52;384.90;2201.60
56123;DHT22;42426;46.104;19.656;2024-03-22T10:11:18;384.90;2201.60
56123;DHT22;42426;46.104;19.656;2024-03-22T10:13:44;409.60;2227.20
56123;DHT22;42426;46.104;19.656;2024-03-22T10:16:10;409.60;2227.20
56123;DHT22;42426;46.104;19.656;2024-03-22T10:18:36;409.70;2227.20
56123;DHT22;42426;46.104;19.656;2024-03-22T10:21:05;409.70;2201.60
56123;DHT22;42426;46.104;19.656;2024-03-22T10:23:31;409.80;2227.20
56123;DHT22;42426;46.104;19.656;2024-03-22T10:25:58;409.90;2201.60
56123;DHT22;42426;46.104;19.656;2024-03-22T10:28:27;410.00;2201.60
56123;DHT22;42426;46.104;19.656;2024-03-22T10:30:53;410.00;2201.60
56123;DHT22;42426;46.104;19.656;2024-03-22T10:33:20;410.10;2176.00
56123;DHT22;42426;46.104;19.656;2024-03-22T10:35:52;410.10;2176.00
56123;DHT22;42426;46.104;19.656;2024-03-22T10:38:21;410.10;2176.00
56123;DHT22;42426;46.104;19.656;2024-03-22T10:40:48;410.10;2150.40
56123;DHT22;42426;46.104;19.656;2024-03-22T10:43:15;410.10;2150.40
56123;DHT22;42426;46.104;19.656;2024-03-22T10:45:43;410.10;2150.40
56123;DHT22;42426;46.104;19.656;2024-03-22T10:48:14;410.20;2150.40
56123;DHT22;42426;46.104;19.656;2024-03-22T10:50:42;410.10;2150.40
56123;DHT22;42426;46.104;19.656;2024-03-22T10:53:18;410.20;2150.40
56123;DHT22;42426;46.104;19.656;2024-03-22T10:55:47;410.40;2176.00
56123;DHT22;42426;46.104;19.656;2024-03-22T10:58:16;410.40;2355.20
56123;DHT22;42426;46.104;19.656;2024-03-22T11:03:09;435.40;2150.40
56123;DHT22;42426;46.104;19.656;2024-03-22T11:05:49;435.30;2150.40
56123;DHT22;42426;46.104;19.656;2024-03-22T11:08:36;435.50;2124.80
56123;DHT22;42426;46.104;19.656;2024-03-22T11:11:12;435.50;2124.80
56123;DHT22;42426;46.104;19.656;2024-03-22T11:13:40;435.50;2150.40
56123;DHT22;42426;46.104;19.656;2024-03-22T11:16:06;435.80;2099.20
56123;DHT22;42426;46.104;19.656;2024-03-22T11:18:34;435.70;2099.20
56123;DHT22;42426;46.104;19.656;2024-03-22T12:17:17;461.10;1971.20
56123;DHT22;42426;46.104;19.656;2024-03-22T12:19:43;461.00;1945.60
56123;DHT22;42426;46.104;19.656;2024-03-22T12:22:09;461.00;1894.40
56123;DHT22;42426;46.104;19.656;2024-03-22T12:24:36;461.10;1920.00
56123;DHT22;42426;46.104;19.656;2024-03-22T12:27:02;461.10;1894.40
56123;DHT22;42426;46.104;19.656;2024-03-22T12:29:28;461.10;1920.00
56123;DHT22;42426;46.104;19.656;2024-03-22T12:31:54;461.10;1868.80
56123;DHT22;42426;46.104;19.656;2024-03-22T12:34:20;461.00;1894.40
56123;DHT22;42426;46.104;19.656;2024-03-22T12:36:45;461.10;1920.00
56123;DHT22;42426;46.104;19.656;2024-03-22T12:39:11;461.10;1920.00
56123;DHT22;42426;46.104;19.656;2024-03-22T12:41:37;461.10;1920.00
56123;DHT22;42426;46.104;19.656;2024-03-22T12:44:04;461.10;1945.60
56123;DHT22;42426;46.104;19.656;2024-03-22T12:46:30;461.10;1945.60
56123;DHT22;42426;46.104;19.656;2024-03-22T12:48:55;461.20;1945.60
56123;DHT22;42426;46.104;19.656;2024-03-22T12:51:21;461.20;1945.60
56123;DHT22;42426;46.104;19.656;2024-03-22T12:53:47;461.20;1920.00
56123;DHT22;42426;46.104;19.656;2024-03-22T12:56:13;461.20;1920.00
56123;DHT22;42426;46.104;19.656;2024-03-22T12:58:41;461.10;1920.00
56123;DHT22;42426;46.104;19.656;2024-03-22T13:01:08;461.20;1920.00
56123;DHT22;42426;46.104;19.656;2024-03-22T13:03:36;461.20;1920.00
56123;DHT22;42426;46.104;19.656;2024-03-22T13:06:03;461.20;1920.00
56123;DHT22;42426;46.104;19.656;2024-03-22T13:08:33;461.20;1920.00
56123;DHT22;42426;46.104;19.656;2024-03-22T13:10:59;461.20;1920.00
56123;DHT22;42426;46.104;19.656;2024-03-22T13:13:25;461.20;1920.00
56123;DHT22;42426;46.104;19.656;2024-03-22T13:15:51;461.20;1920.00
56123;DHT22;42426;46.104;19.656;2024-03-22T13:18:16;461.20;1894.40
56123;DHT22;42426;46.104;19.656;2024-03-22T13:20:47;461.30;1894.40
56123;DHT22;42426;46.104;19.656;2024-03-22T13:23:12;461.30;1894.40
56123;DHT22;42426;46.104;19.656;2024-03-22T13:25:38;461.30;1868.80
56123;DHT22;42426;46.104;19.656;2024-03-22T13:28:04;461.30;1868.80
56123;DHT22;42426;46.104;19.656;2024-03-22T13:30:34;461.30;1868.80
56123;DHT22;42426;46.104;19.656;2024-03-22T13:33:01;461.30;1868.80
56123;DHT22;42426;46.104;19.656;2024-03-22T13:35:27;461.30;1894.40
56123;DHT22;42426;46.104;19.656;2024-03-22T13:37:52;461.20;1894.40
56123;DHT22;42426;46.104;19.656;2024-03-22T13:40:18;461.20;1894.40
56123;DHT22;42426;46.104;19.656;2024-03-22T13:42:44;461.30;1894.40
56123;DHT22;42426;46.104;19.656;2024-03-22T13:45:11;461.30;1894.40
56123;DHT22;42426;46.104;19.656;2024-03-22T13:47:36;461.30;1894.40
56123;DHT22;42426;46.104;19.656;2024-03-22T13:50:06;461.40;1894.40
56123;DHT22;42426;46.104;19.656;2024-03-22T13:52:34;461.30;1894.40
56123;DHT22;42426;46.104;19.656;2024-03-22T13:55:01;461.50;1894.40
56123;DHT22;42426;46.104;19.656;2024-03-22T13:57:27;461.50;1868.80
56123;DHT22;42426;46.104;19.656;2024-03-22T13:59:53;461.50;1868.80
56123;DHT22;42426;46.104;19.656;2024-03-22T14:02:19;461.50;1868.80
56123;DHT22;42426;46.104;19.656;2024-03-22T14:04:45;461.50;1894.40
56123;DHT22;42426;46.104;19.656;2024-03-22T14:07:11;461.60;1843.20
56123;DHT22;42426;46.104;19.656;2024-03-22T14:09:38;461.60;1843.20
56123;DHT22;42426;46.104;19.656;2024-03-22T14:12:05;461.70;1843.20
56123;DHT22;42426;46.104;19.656;2024-03-22T14:14:32;486.40;1843.20
56123;DHT22;42426;46.104;19.656;2024-03-22T14:16:58;486.40;1817.60
56123;DHT22;42426;46.104;19.656;2024-03-22T14:19:24;486.40;1817.60
56123;DHT22;42426;46.104;19.656;2024-03-22T14:21:49;486.40;1817.60
56123;DHT22;42426;46.104;19.656;2024-03-22T14:24:15;486.40;1792.00
56123;DHT22;42426;46.104;19.656;2024-03-22T14:26:41;486.40;1792.00
56123;DHT22;42426;46.104;19.656;2024-03-22T14:29:11;486.40;1792.00
56123;DHT22;42426;46.104;19.656;2024-03-22T14:31:39;486.50;1792.00
56123;DHT22;42426;46.104;19.656;2024-03-22T14:34:08;486.50;1792.00
56123;DHT22;42426;46.104;19.656;2024-03-22T14:36:35;486.40;1792.00
56123;DHT22;42426;46.104;19.656;2024-03-22T14:39:01;486.40;1792.00
56123;DHT22;42426;46.104;19.656;2024-03-22T14:41:32;486.40;1792.00
56123;DHT22;42426;46.104;19.656;2024-03-22T14:43:58;486.40;1792.00
56123;DHT22;42426;46.104;19.656;2024-03-22T14:46:24;486.50;1792.00
56123;DHT22;42426;46.104;19.656;2024-03-22T14:48:54;486.50;1792.00
56123;DHT22;42426;46.104;19.656;2024-03-22T14:51:21;486.50;1766.40
56123;DHT22;42426;46.104;19.656;2024-03-22T14:53:47;486.50;1766.40
56123;DHT22;42426;46.104;19.656;2024-03-22T14:56:13;486.60;1740.80
56123;DHT22;42426;46.104;19.656;2024-03-22T14:58:40;486.60;1740.80
56123;DHT22;42426;46.104;19.656;2024-03-22T15:01:07;486.50;1740.80
56123;DHT22;42426;46.104;19.656;2024-03-22T15:03:34;486.50;1740.80
56123;DHT22;42426;46.104;19.656;2024-03-22T15:06:00;486.50;1740.80
56123;DHT22;42426;46.104;19.656;2024-03-22T15:08:27;486.50;1740.80
56123;DHT22;42426;46.104;19.656;2024-03-22T15:10:55;486.40;1766.40
56123;DHT22;42426;46.104;19.656;2024-03-22T15:13:21;486.40;1766.40
56123;DHT22;42426;46.104;19.656;2024-03-22T15:15:54;486.40;1766.40
56123;DHT22;42426;46.104;19.656;2024-03-22T15:18:20;461.70;1766.40
56123;DHT22;42426;46.104;19.656;2024-03-22T15:20:46;461.70;1766.40
56123;DHT22;42426;46.104;19.656;2024-03-22T15:23:13;461.70;1792.00
56123;DHT22;42426;46.104;19.656;2024-03-22T15:25:38;461.70;1792.00
56123;DHT22;42426;46.104;19.656;2024-03-22T15:28:04;461.70;1792.00
56123;DHT22;42426;46.104;19.656;2024-03-22T15:30:30;461.60;1817.60
56123;DHT22;42426;46.104;19.656;2024-03-22T15:32:56;461.60;1817.60
56123;DHT22;42426;46.104;19.656;2024-03-22T15:35:22;461.60;1817.60
56123;DHT22;42426;46.104;19.656;2024-03-22T15:37:47;461.50;1817.60
56123;DHT22;42426;46.104;19.656;2024-03-22T15:40:14;461.50;1843.20
56123;DHT22;42426;46.104;19.656;2024-03-22T15:42:40;461.50;1843.20
56123;DHT22;42426;46.104;19.656;2024-03-22T15:45:06;461.40;1843.20
56123;DHT22;42426;46.104;19.656;2024-03-22T15:47:32;461.40;1843.20
56123;DHT22;42426;46.104;19.656;2024-03-22T15:49:58;461.40;1843.20
56123;DHT22;42426;46.104;19.656;2024-03-22T15:52:25;461.30;1868.80
56123;DHT22;42426;46.104;19.656;2024-03-22T15:54:50;461.30;1868.80
56123;DHT22;42426;46.104;19.656;2024-03-22T15:57:19;461.20;1868.80
56123;DHT22;42426;46.104;19.656;2024-03-22T15:59:44;461.20;1868.80
56123;DHT22;42426;46.104;19.656;2024-03-22T16:02:10;461.20;1868.80
56123;DHT22;42426;46.104;19.656;2024-03-22T16:04:36;461.20;1894.40
56123;DHT22;42426;46.104;19.656;2024-03-22T16:07:03;461.10;1894.40
56123;DHT22;42426;46.104;19.656;2024-03-22T16:09:30;461.10;1920.00
56123;DHT22;42426;46.104;19.656;2024-03-22T16:11:56;461.00;1920.00
56123;DHT22;42426;46.104;19.656;2024-03-22T16:14:22;461.00;1920.00
56123;DHT22;42426;46.104;19.656;2024-03-22T16:16:48;461.00;1920.00
56123;DHT22;42426;46.104;19.656;2024-03-22T16:19:13;460.90;1945.60
56123;DHT22;42426;46.104;19.656;2024-03-22T16:21:39;460.90;1945.60
56123;DHT22;42426;46.104;19.656;2024-03-22T16:24:05;460.90;1945.60
56123;DHT22;42426;46.104;19.656;2024-03-22T16:26:31;460.80;1945.60
56123;DHT22;42426;46.104;19.656;2024-03-22T16:28:57;460.80;1945.60
56123;DHT22;42426;46.104;19.656;2024-03-22T16:31:24;436.10;1920.00
56123;DHT22;42426;46.104;19.656;2024-03-22T16:33:50;436.10;1920.00
56123;DHT22;42426;46.104;19.656;2024-03-22T16:36:15;436.00;1945.60
56123;DHT22;42426;46.104;19.656;2024-03-22T16:38:41;435.90;1945.60
56123;DHT22;42426;46.104;19.656;2024-03-22T16:41:07;435.90;1945.60
56123;DHT22;42426;46.104;19.656;2024-03-22T16:43:36;435.80;1971.20
56123;DHT22;42426;46.104;19.656;2024-03-22T16:46:03;435.80;1945.60
56123;DHT22;42426;46.104;19.656;2024-03-22T16:48:29;435.70;1945.60
56123;DHT22;42426;46.104;19.656;2024-03-22T16:50:55;435.60;1971.20
56123;DHT22;42426;46.104;19.656;2024-03-22T16:53:22;435.60;1996.80
56123;DHT22;42426;46.104;19.656;2024-03-22T16:55:49;435.50;1996.80
56123;DHT22;42426;46.104;19.656;2024-03-22T16:58:17;435.40;1996.80
56123;DHT22;42426;46.104;19.656;2024-03-22T17:00:44;435.40;1996.80
56123;DHT22;42426;46.104;19.656;2024-03-22T17:03:10;435.20;2022.40
56123;DHT22;42426;46.104;19.656;2024-03-22T17:05:36;435.20;2022.40
56123;DHT22;42426;46.104;19.656;2024-03-22T17:08:02;435.20;2022.40
56123;DHT22;42426;46.104;19.656;2024-03-22T17:10:29;410.50;2048.00
56123;DHT22;42426;46.104;19.656;2024-03-22T17:12:54;410.40;2048.00
56123;DHT22;42426;46.104;19.656;2024-03-22T17:15:21;410.40;2048.00
56123;DHT22;42426;46.104;19.656;2024-03-22T17:17:46;410.30;2073.60
56123;DHT22;42426;46.104;19.656;2024-03-22T17:20:12;410.30;2073.60
56123;DHT22;42426;46.104;19.656;2024-03-22T17:22:43;410.10;2073.60
56123;DHT22;42426;46.104;19.656;2024-03-22T17:25:09;410.10;2099.20
56123;DHT22;42426;46.104;19.656;2024-03-22T17:27:35;410.10;2099.20
56123;DHT22;42426;46.104;19.656;2024-03-22T17:30:01;410.00;2124.80
56123;DHT22;42426;46.104;19.656;2024-03-22T17:32:28;409.90;2124.80
56123;DHT22;42426;46.104;19.656;2024-03-22T17:37:20;410.10;2073.60
56123;DHT22;42426;46.104;19.656;2024-03-22T17:39:46;409.80;2099.20
56123;DHT22;42426;46.104;19.656;2024-03-22T17:42:12;409.60;2124.80
56123;DHT22;42426;46.104;19.656;2024-03-22T17:44:38;409.60;2124.80
56123;DHT22;42426;46.104;19.656;2024-03-22T17:47:04;384.90;2099.20
56123;DHT22;42426;46.104;19.656;2024-03-22T17:49:30;384.80;2124.80
56123;DHT22;42426;46.104;19.656;2024-03-22T17:51:55;384.90;2124.80
56123;DHT22;42426;46.104;19.656;2024-03-22T17:54:21;384.70;2124.80
56123;DHT22;42426;46.104;19.656;2024-03-22T17:56:48;384.70;2124.80
56123;DHT22;42426;46.104;19.656;2024-03-22T17:59:14;384.60;2124.80
56123;DHT22;42426;46.104;19.656;2024-03-22T18:01:41;384.60;2150.40
56123;DHT22;42426;46.104;19.656;2024-03-22T18:04:06;384.50;2150.40
56123;DHT22;42426;46.104;19.656;2024-03-22T18:06:33;384.50;2150.40
56123;DHT22;42426;46.104;19.656;2024-03-22T18:08:59;384.70;2150.40
56123;DHT22;42426;46.104;19.656;2024-03-22T18:11:25;384.40;2176.00
56123;DHT22;42426;46.104;19.656;2024-03-22T18:13:52;384.30;2176.00
56123;DHT22;42426;46.104;19.656;2024-03-22T18:16:18;384.20;2176.00
56123;DHT22;42426;46.104;19.656;2024-03-22T18:18:44;384.20;2201.60
56123;DHT22;42426;46.104;19.656;2024-03-22T18:21:09;384.00;2201.60
56123;DHT22;42426;46.104;19.656;2024-03-22T18:23:36;384.00;2227.20
56123;DHT22;42426;46.104;19.656;2024-03-22T18:26:01;359.30;2227.20
56123;DHT22;42426;46.104;19.656;2024-03-22T18:28:27;359.20;2227.20
56123;DHT22;42426;46.104;19.656;2024-03-22T18:30:53;359.10;2227.20
56123;DHT22;42426;46.104;19.656;2024-03-22T18:33:19;359.10;2252.80
56123;DHT22;42426;46.104;19.656;2024-03-22T18:35:46;359.00;2252.80
56123;DHT22;42426;46.104;19.656;2024-03-22T18:38:12;358.90;2252.80
56123;DHT22;42426;46.104;19.656;2024-03-22T18:40:38;358.90;2278.40
56123;DHT22;42426;46.104;19.656;2024-03-22T18:43:04;358.90;2278.40
56123;DHT22;42426;46.104;19.656;2024-03-22T18:45:30;358.90;2278.40
56123;DHT22;42426;46.104;19.656;2024-03-22T18:47:55;358.80;2278.40
56123;DHT22;42426;46.104;19.656;2024-03-22T18:50:21;358.70;2278.40
56123;DHT22;42426;46.104;19.656;2024-03-22T18:52:47;358.70;2304.00
56123;DHT22;42426;46.104;19.656;2024-03-22T18:55:13;358.60;2304.00
56123;DHT22;42426;46.104;19.656;2024-03-22T18:57:38;358.60;2304.00
56123;DHT22;42426;46.104;19.656;2024-03-22T19:00:06;358.60;2304.00
56123;DHT22;42426;46.104;19.656;2024-03-22T19:02:33;358.60;2304.00
56123;DHT22;42426;46.104;19.656;2024-03-22T19:04:59;358.50;2304.00
56123;DHT22;42426;46.104;19.656;2024-03-22T19:07:24;358.40;2329.60
56123;DHT22;42426;46.104;19.656;2024-03-22T19:09:50;358.40;2329.60
56123;DHT22;42426;46.104;19.656;2024-03-22T19:12:16;358.40;2329.60
56123;DHT22;42426;46.104;19.656;2024-03-22T19:14:48;333.70;2329.60
56123;DHT22;42426;46.104;19.656;2024-03-22T19:17:14;333.70;2329.60
56123;DHT22;42426;46.104;19.656;2024-03-22T19:19:40;333.60;2329.60
56123;DHT22;42426;46.104;19.656;2024-03-22T19:22:07;333.60;2329.60
56123;DHT22;42426;46.104;19.656;2024-03-22T20:33:05;333.10;2329.60
56123;DHT22;42426;46.104;19.656;2024-03-22T20:35:31;332.90;2329.60
